This is the latest recevied weather packets stored in our database for station/object OK1PHM-12. If no packets are shown the sender has not sent any weather packets the latest 10 day(s).
| Time | Temp. | Humidity | Pressure | Rain* | Wind** | Luminosity | Snow |
|---|---|---|---|---|---|---|---|
| 1777925445 | 16.11° C | 71% | 1013.7 hPa | - | - | - | - |
| 1777924543 | 16.67° C | 69% | 1013.7 hPa | - | - | - | - |
| 1777923642 | 17.22° C | 69% | 1013.7 hPa | - | - | - | - |
| 1777922741 | 17.78° C | 68% | 1013.6 hPa | - | - | - | - |
| 1777921840 | 18.33° C | 66% | 1013.6 hPa | - | - | - | - |
| 1777920940 | 18.89° C | 64% | 1013.6 hPa | - | - | - | - |
| 1777920039 | 19.44° C | 63% | 1013.4 hPa | - | - | - | - |
| 1777919138 | 20° C | 62% | 1013.4 hPa | - | - | - | - |
| 1777918237 | 21.11° C | 59% | 1013.3 hPa | - | - | - | - |
| 1777917336 | 21.67° C | 54% | 1013.3 hPa | - | - | - | - |
| 1777916436 | 22.78° C | 50% | 1013.2 hPa | - | - | - | - |
| 1777915535 | 23.33° C | 48% | 1013.2 hPa | - | - | - | - |
| 1777914634 | 23.89° C | 45% | 1013.1 hPa | - | - | - | - |
| 1777913733 | 24.44° C | 43% | 1013.2 hPa | - | - | - | - |
| 1777912832 | 24.44° C | 42% | 1013.2 hPa | - | - | - | - |
| 1777911931 | 25° C | 45% | 1013.4 hPa | - | - | - | - |
| 1777911031 | 25.56° C | 44% | 1013.4 hPa | - | - | - | - |
| 1777910130 | 25.56° C | 42% | 1013.4 hPa | - | - | - | - |
| 1777909229 | 25.56° C | 41% | 1013.5 hPa | - | - | - | - |
| 1777908328 | 25.56° C | 40% | 1013.5 hPa | - | - | - | - |
| 1777907427 | 26.11° C | 40% | 1013.6 hPa | - | - | - | - |
| 1777906527 | 26.67° C | 38% | 1013.6 hPa | - | - | - | - |
| 1777905626 | 25.56° C | 40% | 1013.7 hPa | - | - | - | - |
| 1777904725 | 25.56° C | 39% | 1013.8 hPa | - | - | - | - |
| 1777903823 | 26.11° C | 40% | 1013.9 hPa | - | - | - | - |
* Rain since midnight (hover to see other rain measurements)
** Current wind speed in m/s (hover to see current wind gust speed)